Time;durP1;ratioP1;P1;durP2;ratioP2;P2;SDS_P1;SDS_P2;PMS_P1;PMS_P2;Temp;Humidity;BMP_temperature;BMP_pressure;BME280_temperature;BME280_humidity;BME280_pressure;Samples;Min_cycle;Max_cycle;Signal;HPM_P1;HPM_P2
2021/01/08 00:00:50;;;;;;;13.93;9.07;;;1.20;91.50;;;;;;5017073;28;20184;-89
2021/01/08 00:03:16;;;;;;;14.57;9.90;;;1.20;91.90;;;;;;5017668;28;20181;-89
2021/01/08 00:05:42;;;;;;;11.87;9.13;;;1.20;92.40;;;;;;4999438;28;20189;-89
2021/01/08 00:08:07;;;;;;;13.00;9.13;;;1.30;91.30;;;;;;5016241;28;20500;-89
2021/01/08 00:10:33;;;;;;;10.77;8.13;;;1.30;90.50;;;;;;5016920;28;20214;-88
2021/01/08 00:13:02;;;;;;;12.83;9.27;;;1.30;90.30;;;;;;5016280;28;20216;-89
2021/01/08 00:15:29;;;;;;;13.23;9.17;;;1.30;90.90;;;;;;5017312;28;20174;-89
2021/01/08 00:17:54;;;;;;;13.63;8.73;;;1.40;90.60;;;;;;5016012;28;20209;-89
2021/01/08 00:20:20;;;;;;;15.33;10.50;;;1.40;90.90;;;;;;5017307;28;20937;-89
2021/01/08 00:22:46;;;;;;;12.80;10.07;;;1.40;91.00;;;;;;5015716;28;20684;-89
2021/01/08 00:25:12;;;;;;;14.20;10.10;;;1.30;91.90;;;;;;5018854;28;20184;-89
2021/01/08 00:27:37;;;;;;;15.50;9.93;;;1.30;90.90;;;;;;5016552;28;20205;-89
2021/01/08 00:30:08;;;;;;;13.73;9.50;;;1.30;91.00;;;;;;5017252;28;20267;-89
2021/01/08 00:32:33;;;;;;;13.40;9.67;;;1.30;91.10;;;;;;5032273;28;20177;-89
2021/01/08 00:34:59;;;;;;;18.10;10.37;;;1.30;91.50;;;;;;5025333;28;20675;-87
2021/01/08 00:37:25;;;;;;;12.13;8.93;;;1.20;91.80;;;;;;5016561;28;20217;-89
2021/01/08 00:39:51;;;;;;;13.13;10.30;;;1.30;92.10;;;;;;5017027;28;20197;-88
2021/01/08 00:42:17;;;;;;;14.40;10.43;;;1.30;91.70;;;;;;5017318;28;20196;-89
2021/01/08 00:44:43;;;;;;;13.37;10.70;;;1.30;91.80;;;;;;5016850;28;20533;-88
2021/01/08 00:47:09;;;;;;;11.97;9.63;;;1.30;92.30;;;;;;5017151;28;20529;-88
2021/01/08 00:49:34;;;;;;;13.40;9.50;;;1.30;92.50;;;;;;5020320;28;20208;-88
2021/01/08 00:52:01;;;;;;;13.63;10.23;;;1.30;92.90;;;;;;5003781;28;20672;-88
2021/01/08 00:54:27;;;;;;;14.10;10.03;;;1.30;92.10;;;;;;5003303;28;20532;-87
2021/01/08 00:56:52;;;;;;;13.33;10.53;;;1.40;91.80;;;;;;5020669;28;20186;-87
2021/01/08 00:59:18;;;;;;;14.10;10.13;;;1.20;93.20;;;;;;5020365;28;20209;-87
2021/01/08 01:01:44;;;;;;;13.30;9.27;;;1.30;93.20;;;;;;5012787;28;20181;-87
2021/01/08 01:04:10;;;;;;;14.63;9.47;;;1.30;93.60;;;;;;5023976;28;20224;-86
2021/01/08 01:06:35;;;;;;;15.20;10.17;;;1.30;93.30;;;;;;5030702;28;20192;-86
2021/01/08 01:09:03;;;;;;;14.17;10.40;;;1.30;93.70;;;;;;5022175;28;20209;-88
2021/01/08 01:11:29;;;;;;;12.73;9.80;;;1.20;93.40;;;;;;5013082;28;20178;-87
2021/01/08 01:13:56;;;;;;;14.87;10.63;;;1.30;93.80;;;;;;5021666;28;20632;-88
2021/01/08 01:16:23;;;;;;;13.07;10.30;;;1.30;93.30;;;;;;5004198;28;20197;-88
2021/01/08 01:18:50;;;;;;;14.60;10.33;;;1.40;92.70;;;;;;5021413;28;20206;-87
2021/01/08 01:21:17;;;;;;;13.67;10.00;;;1.40;93.60;;;;;;5004475;28;20185;-87
2021/01/08 01:23:43;;;;;;;16.10;11.03;;;1.40;92.70;;;;;;5021372;28;20178;-88
2021/01/08 01:26:09;;;;;;;16.23;11.57;;;1.30;93.70;;;;;;5021364;28;20188;-88
2021/01/08 01:28:36;;;;;;;13.43;10.23;;;1.40;93.70;;;;;;5021834;28;20201;-88
2021/01/08 01:31:02;;;;;;;15.07;10.07;;;1.40;93.20;;;;;;5005000;28;20249;-87
2021/01/08 01:33:28;;;;;;;13.77;10.33;;;1.40;93.20;;;;;;5021961;28;20224;-89
2021/01/08 01:35:55;;;;;;;16.57;10.80;;;1.40;93.40;;;;;;5021541;28;20182;-88
2021/01/08 01:38:21;;;;;;;13.57;10.17;;;1.50;93.40;;;;;;5021702;28;20210;-88
2021/01/08 01:40:48;;;;;;;15.27;10.67;;;1.50;93.00;;;;;;5021438;28;20185;-88
2021/01/08 01:43:14;;;;;;;14.73;10.57;;;1.50;93.50;;;;;;5021387;28;20182;-88
2021/01/08 01:45:39;;;;;;;17.23;11.73;;;1.50;94.30;;;;;;5021255;28;20285;-88
2021/01/08 01:48:06;;;;;;;16.17;12.10;;;1.40;94.20;;;;;;5021805;28;20225;-88
2021/01/08 01:50:32;;;;;;;19.53;12.80;;;1.40;94.90;;;;;;5022390;28;20206;-88
2021/01/08 01:52:57;;;;;;;17.10;12.47;;;1.30;95.40;;;;;;5022376;28;20181;-88
2021/01/08 01:55:23;;;;;;;15.60;10.43;;;1.30;95.60;;;;;;5022541;28;20661;-88
2021/01/08 01:57:51;;;;;;;17.77;13.20;;;1.30;95.10;;;;;;5016688;28;20224;-88
2021/01/08 02:00:17;;;;;;;18.17;12.63;;;1.30;95.00;;;;;;5022319;28;20186;-88
2021/01/08 02:02:56;;;;;;;15.37;11.43;;;1.30;95.90;;;;;;5004699;28;20193;-88
2021/01/08 02:05:23;;;;;;;15.47;10.60;;;1.30;96.00;;;;;;5028334;28;20220;-87
2021/01/08 02:08:06;;;;;;;15.27;11.10;;;1.50;94.60;;;;;;5022408;28;20263;-88
2021/01/08 02:10:49;;;;;;;14.17;10.97;;;1.50;94.60;;;;;;5022181;28;20209;-88
2021/01/08 02:13:23;;;;;;;16.77;12.23;;;1.50;94.90;;;;;;5022365;28;20166;-89
2021/01/08 02:15:52;;;;;;;16.10;11.17;;;1.40;95.70;;;;;;5022025;28;20210;-87
2021/01/08 02:18:18;;;;;;;18.73;12.63;;;1.50;95.60;;;;;;5021736;28;20209;-87
2021/01/08 02:20:44;;;;;;;16.73;12.70;;;1.50;95.80;;;;;;5022164;28;20252;-88
2021/01/08 02:23:18;;;;;;;18.47;12.77;;;1.40;96.30;;;;;;5021829;28;20189;-87
2021/01/08 02:25:44;;;;;;;16.73;13.07;;;1.30;96.90;;;;;;5003709;28;20197;-88
2021/01/08 02:28:26;;;;;;;18.43;13.17;;;1.30;96.50;;;;;;5004321;28;20205;-90
2021/01/08 02:30:53;;;;;;;18.00;13.03;;;1.30;97.20;;;;;;4988404;28;20197;-88
2021/01/08 02:33:20;;;;;;;16.73;12.80;;;1.40;97.20;;;;;;5041111;28;20248;-89
2021/01/08 02:35:49;;;;;;;17.67;13.57;;;1.30;97.70;;;;;;5025018;28;20200;-89
2021/01/08 02:38:19;;;;;;;17.33;13.27;;;1.30;97.90;;;;;;5010522;28;20723;-88
2021/01/08 02:40:50;;;;;;;17.23;12.27;;;1.30;98.00;;;;;;5021822;28;20205;-89
2021/01/08 02:43:20;;;;;;;16.07;12.47;;;1.40;98.10;;;;;;5021332;28;20672;-88
2021/01/08 02:45:46;;;;;;;17.53;13.13;;;1.50;96.40;;;;;;5021700;28;20166;-88
2021/01/08 02:48:12;;;;;;;16.97;12.03;;;1.60;96.50;;;;;;5020087;28;20265;-88
2021/01/08 02:50:38;;;;;;;15.50;12.57;;;1.60;96.00;;;;;;5020808;28;20568;-89
2021/01/08 02:53:07;;;;;;;17.90;12.87;;;1.50;96.80;;;;;;5021099;28;20249;-88
2021/01/08 02:55:34;;;;;;;17.57;12.93;;;1.50;97.80;;;;;;5020726;28;20181;-88
2021/01/08 02:58:02;;;;;;;20.03;13.03;;;1.30;98.20;;;;;;5021705;28;20202;-88
2021/01/08 03:00:30;;;;;;;18.50;12.83;;;1.40;98.10;;;;;;5021396;28;20185;-88
2021/01/08 03:02:58;;;;;;;18.03;13.77;;;1.30;98.40;;;;;;5039074;28;20516;-89
2021/01/08 03:05:24;;;;;;;17.30;12.67;;;1.30;99.40;;;;;;5027484;28;20196;-89
2021/01/08 03:07:50;;;;;;;19.83;13.47;;;1.40;98.60;;;;;;5020753;28;20210;-89
2021/01/08 03:10:17;;;;;;;18.00;13.10;;;1.40;99.00;;;;;;5020084;28;20210;-88
2021/01/08 03:12:52;;;;;;;15.60;13.13;;;1.50;98.00;;;;;;5020790;28;20640;-87
2021/01/08 03:15:18;;;;;;;17.47;12.80;;;1.40;98.10;;;;;;5020717;28;20177;-88
2021/01/08 03:17:43;;;;;;;18.10;13.90;;;1.40;98.60;;;;;;5021094;28;20219;-87
2021/01/08 03:20:10;;;;;;;14.93;12.10;;;1.40;98.50;;;;;;5020053;28;20555;-88
2021/01/08 03:22:35;;;;;;;17.50;12.33;;;1.50;97.90;;;;;;5020748;28;20272;-88
2021/01/08 03:25:01;;;;;;;14.80;11.33;;;1.50;98.30;;;;;;5019458;28;20216;-88
2021/01/08 03:27:27;;;;;;;16.70;12.50;;;1.60;97.10;;;;;;5019340;28;20526;-88
2021/01/08 03:29:52;;;;;;;15.87;12.10;;;1.50;97.10;;;;;;5019467;28;20222;-87
2021/01/08 03:32:18;;;;;;;17.73;11.97;;;1.50;97.70;;;;;;5019077;28;20243;-88
2021/01/08 03:34:44;;;;;;;16.53;12.53;;;1.50;97.20;;;;;;5019802;28;20265;-87
2021/01/08 03:37:09;;;;;;;18.10;12.43;;;1.50;97.60;;;;;;5018303;28;20381;-87
2021/01/08 03:39:35;;;;;;;18.30;12.73;;;1.50;97.20;;;;;;5003358;28;20667;-87
2021/01/08 03:42:01;;;;;;;15.63;11.63;;;1.50;97.10;;;;;;5020673;28;20198;-87
2021/01/08 03:44:26;;;;;;;18.03;12.03;;;1.60;97.30;;;;;;4986425;28;20190;-87
2021/01/08 03:46:52;;;;;;;13.83;10.90;;;1.60;97.10;;;;;;5020840;28;20197;-87
2021/01/08 03:49:17;;;;;;;15.33;11.80;;;1.60;96.90;;;;;;5020394;28;20220;-88
2021/01/08 03:51:43;;;;;;;17.53;12.47;;;1.60;96.50;;;;;;5002743;28;20196;-88
2021/01/08 03:54:09;;;;;;;15.17;12.13;;;1.60;96.20;;;;;;5020794;28;20193;-87
2021/01/08 03:56:35;;;;;;;15.60;11.07;;;1.50;97.10;;;;;;5020539;28;20174;-87
2021/01/08 03:59:01;;;;;;;14.73;11.40;;;1.50;97.30;;;;;;5020278;28;20197;-87
2021/01/08 04:01:26;;;;;;;16.07;11.80;;;1.50;97.10;;;;;;5019630;28;20178;-87
2021/01/08 04:03:52;;;;;;;14.43;11.20;;;1.60;97.00;;;;;;5033318;28;20200;-86
2021/01/08 04:06:17;;;;;;;13.37;10.43;;;1.60;96.80;;;;;;5005829;28;20544;-87
2021/01/08 04:08:43;;;;;;;14.03;11.00;;;1.50;98.40;;;;;;5018451;28;20214;-87
2021/01/08 04:11:09;;;;;;;16.87;11.10;;;1.50;98.70;;;;;;4985993;28;20237;-88
2021/01/08 04:13:34;;;;;;;13.53;10.67;;;1.40;98.70;;;;;;4966633;28;20214;-88
2021/01/08 04:16:00;;;;;;;14.97;11.43;;;1.50;99.10;;;;;;5011025;28;20759;-88
2021/01/08 04:18:26;;;;;;;13.83;11.37;;;1.30;99.70;;;;;;5019685;28;20213;-88
2021/01/08 04:20:52;;;;;;;15.03;10.70;;;1.40;99.60;;;;;;5019652;28;20269;-88
2021/01/08 04:23:17;;;;;;;14.27;10.53;;;1.40;99.70;;;;;;5019671;28;20190;-87
2021/01/08 04:25:43;;;;;;;13.43;9.70;;;1.40;99.90;;;;;;5019737;28;20284;-87
2021/01/08 04:28:09;;;;;;;14.30;9.97;;;1.50;99.40;;;;;;5002392;28;20217;-87
2021/01/08 04:30:34;;;;;;;14.90;9.63;;;1.40;99.30;;;;;;5001920;28;20288;-87
2021/01/08 04:33:00;;;;;;;12.97;9.30;;;1.50;99.00;;;;;;5008549;28;20208;-88
2021/01/08 04:35:25;;;;;;;12.93;8.93;;;1.50;98.70;;;;;;5039685;28;20706;-87
2021/01/08 04:37:51;;;;;;;10.47;8.27;;;1.50;98.30;;;;;;5039311;28;20217;-87
2021/01/08 04:40:18;;;;;;;10.27;8.30;;;1.50;98.40;;;;;;5011109;28;20224;-88
2021/01/08 04:42:44;;;;;;;11.03;8.47;;;1.50;99.00;;;;;;5020001;28;20197;-87
2021/01/08 04:45:10;;;;;;;12.27;9.40;;;1.40;99.30;;;;;;5020059;28;20667;-88
2021/01/08 04:47:37;;;;;;;13.07;9.60;;;1.40;99.30;;;;;;5020040;28;20202;-88
2021/01/08 04:50:04;;;;;;;13.83;9.30;;;1.40;99.70;;;;;;5020080;28;20208;-88
2021/01/08 04:52:32;;;;;;;11.13;8.57;;;1.50;99.20;;;;;;5019741;28;20173;-88
2021/01/08 04:55:00;;;;;;;12.43;9.60;;;1.40;99.30;;;;;;5020387;28;20205;-87
2021/01/08 04:57:32;;;;;;;12.37;9.57;;;1.40;98.90;;;;;;5019955;28;20216;-88
2021/01/08 04:59:59;;;;;;;13.53;9.43;;;1.50;98.40;;;;;;5019717;28;20703;-87
2021/01/08 05:02:25;;;;;;;12.33;9.90;;;1.40;98.80;;;;;;5019436;28;20190;-89
2021/01/08 05:04:51;;;;;;;13.67;10.47;;;1.30;99.60;;;;;;5036563;28;20181;-88
2021/01/08 05:07:16;;;;;;;15.77;10.80;;;1.30;99.70;;;;;;5040112;28;20555;-87
2021/01/08 05:09:42;;;;;;;16.00;11.23;;;1.30;99.70;;;;;;4994211;28;20202;-87
2021/01/08 05:12:08;;;;;;;12.97;10.20;;;1.40;99.70;;;;;;5003535;28;20656;-88
2021/01/08 05:14:34;;;;;;;14.00;10.27;;;1.50;98.70;;;;;;5019427;28;20458;-87
2021/01/08 05:16:59;;;;;;;13.57;9.73;;;1.50;98.70;;;;;;5020464;28;20672;-88
2021/01/08 05:19:25;;;;;;;12.97;10.97;;;1.50;98.20;;;;;;5002894;28;20190;-87
2021/01/08 05:21:55;;;;;;;14.97;11.13;;;1.40;99.00;;;;;;5019200;28;20193;-88
2021/01/08 05:24:24;;;;;;;14.40;10.60;;;1.40;98.80;;;;;;4984367;28;20201;-88
2021/01/08 05:26:52;;;;;;;12.87;9.20;;;1.40;98.40;;;;;;5018026;28;20185;-87
2021/01/08 05:29:18;;;;;;;13.90;10.50;;;1.50;98.00;;;;;;5000543;28;20213;-87
2021/01/08 05:31:46;;;;;;;14.47;10.57;;;1.50;97.60;;;;;;5001023;28;20200;-88
2021/01/08 05:34:11;;;;;;;12.73;9.90;;;1.40;97.90;;;;;;5020660;28;20209;-88
2021/01/08 05:36:37;;;;;;;14.37;11.10;;;1.40;97.90;;;;;;5021272;28;20552;-89
2021/01/08 05:39:04;;;;;;;13.17;10.17;;;1.30;99.10;;;;;;5017043;28;20221;-88
2021/01/08 05:41:32;;;;;;;15.83;11.03;;;1.40;98.50;;;;;;5021941;28;20178;-88
2021/01/08 05:44:00;;;;;;;13.73;10.77;;;1.40;99.00;;;;;;5021628;28;20236;-88
2021/01/08 05:46:34;;;;;;;13.97;10.90;;;1.40;98.70;;;;;;5021720;28;20189;-88
2021/01/08 05:49:05;;;;;;;15.33;11.10;;;1.30;99.40;;;;;;5021173;28;20209;-88
2021/01/08 05:51:35;;;;;;;17.83;12.40;;;1.40;98.60;;;;;;5021590;28;20166;-88
2021/01/08 05:54:02;;;;;;;16.13;11.53;;;1.30;99.90;;;;;;5021096;28;20640;-88
2021/01/08 05:56:36;;;;;;;13.80;10.33;;;1.30;99.10;;;;;;5019671;28;20205;-88
2021/01/08 05:59:06;;;;;;;15.53;11.37;;;1.30;99.00;;;;;;5021053;28;20622;-88
2021/01/08 06:01:36;;;;;;;14.30;11.03;;;1.30;98.80;;;;;;5021286;28;20236;-90
2021/01/08 06:04:02;;;;;;;15.77;11.83;;;1.40;98.50;;;;;;5027497;28;20188;-90
2021/01/08 06:06:40;;;;;;;13.97;10.90;;;1.40;98.00;;;;;;5021109;28;20572;-90
2021/01/08 06:09:06;;;;;;;14.33;11.13;;;1.40;98.80;;;;;;5020307;28;20299;-89
2021/01/08 06:11:35;;;;;;;13.60;9.77;;;1.50;97.30;;;;;;5020115;28;20190;-89
2021/01/08 06:14:10;;;;;;;12.77;9.63;;;1.40;97.80;;;;;;5020318;28;20241;-89
2021/01/08 06:16:38;;;;;;;13.50;9.80;;;1.40;96.90;;;;;;5020037;28;20526;-89
2021/01/08 06:19:05;;;;;;;16.40;11.03;;;1.40;97.10;;;;;;5021089;28;20209;-89
2021/01/08 06:21:38;;;;;;;12.90;10.00;;;1.40;98.00;;;;;;5020071;28;20185;-90
2021/01/08 06:24:05;;;;;;;15.47;10.23;;;1.40;97.60;;;;;;5022505;28;20185;-89
2021/01/08 06:26:32;;;;;;;13.97;10.80;;;1.40;97.50;;;;;;5038133;28;20196;-89
2021/01/08 06:29:02;;;;;;;14.23;10.50;;;1.40;97.70;;;;;;5020726;28;20214;-90
2021/01/08 06:32:04;;;;;;;13.93;10.33;;;1.40;97.70;;;;;;5020627;28;20273;-89
2021/01/08 06:34:30;;;;;;;15.50;11.27;;;1.40;97.50;;;;;;5012881;28;20272;-90
2021/01/08 06:37:09;;;;;;;15.20;11.67;;;1.30;98.00;;;;;;5022558;28;20177;-90
2021/01/08 06:39:46;;;;;;;14.63;10.80;;;1.40;97.80;;;;;;5021284;28;20182;-90
2021/01/08 06:42:29;;;;;;;17.17;11.87;;;1.40;97.30;;;;;;5018770;28;20200;-90
2021/01/08 06:44:55;;;;;;;13.23;11.43;;;1.40;97.50;;;;;;5017628;28;20206;-90
2021/01/08 06:47:22;;;;;;;16.03;12.23;;;1.40;97.70;;;;;;5021616;28;20206;-91
2021/01/08 06:49:51;;;;;;;16.43;12.17;;;1.40;97.90;;;;;;5021501;28;20197;-91
2021/01/08 06:52:17;;;;;;;14.43;11.00;;;1.40;97.90;;;;;;5021522;28;20196;-90
2021/01/08 06:54:43;;;;;;;12.83;10.57;;;1.40;97.90;;;;;;5021324;28;20194;-91
2021/01/08 06:57:33;;;;;;;15.87;11.47;;;1.40;98.00;;;;;;5020667;28;20204;-90
2021/01/08 07:00:04;;;;;;;16.13;12.03;;;1.40;97.70;;;;;;5022338;28;20182;-91
2021/01/08 07:02:32;;;;;;;16.43;11.57;;;1.40;97.10;;;;;;5023469;28;20192;-89
2021/01/08 07:04:59;;;;;;;13.97;10.83;;;1.40;97.50;;;;;;5024722;28;20252;-91
2021/01/08 07:07:27;;;;;;;14.93;11.23;;;1.50;97.30;;;;;;5035999;28;20204;-91
2021/01/08 07:09:54;;;;;;;16.77;11.30;;;1.50;96.70;;;;;;5034004;28;20208;-90
2021/01/08 07:12:24;;;;;;;15.17;11.13;;;1.50;96.90;;;;;;5022293;28;20173;-90
2021/01/08 07:14:51;;;;;;;12.93;10.70;;;1.40;97.40;;;;;;5022549;28;20174;-90
2021/01/08 07:17:16;;;;;;;14.67;10.37;;;1.50;96.40;;;;;;5022099;28;20189;-90
2021/01/08 07:19:44;;;;;;;14.07;10.93;;;1.40;96.50;;;;;;5022289;28;20188;-90
2021/01/08 07:22:18;;;;;;;14.33;9.90;;;1.40;96.50;;;;;;5022197;28;20675;-90
2021/01/08 07:24:47;;;;;;;13.37;11.03;;;1.50;95.50;;;;;;5021541;28;20216;-90
2021/01/08 07:27:27;;;;;;;15.73;10.37;;;1.50;95.90;;;;;;5019813;28;20190;-90
2021/01/08 07:29:54;;;;;;;13.07;9.93;;;1.40;96.50;;;;;;5020429;28;20266;-90
2021/01/08 07:32:40;;;;;;;13.50;9.50;;;1.40;96.10;;;;;;5019714;28;20174;-90
2021/01/08 07:35:27;;;;;;;13.17;9.43;;;1.50;96.00;;;;;;5020442;28;20182;-90
2021/01/08 07:37:56;;;;;;;13.30;9.73;;;1.40;95.40;;;;;;5020498;28;20573;-89
2021/01/08 07:40:22;;;;;;;12.93;10.33;;;1.40;95.90;;;;;;5019869;28;20185;-89
2021/01/08 07:43:07;;;;;;;15.83;9.67;;;1.40;95.90;;;;;;5019884;28;20256;-89
2021/01/08 07:45:56;;;;;;;13.17;9.83;;;1.50;95.80;;;;;;4999834;28;20167;-90
2021/01/08 07:48:25;;;;;;;13.40;9.53;;;1.40;95.50;;;;;;5000384;28;20281;-90
2021/01/08 07:50:55;;;;;;;14.17;9.10;;;1.50;95.50;;;;;;4998728;28;20209;-90
2021/01/08 07:53:42;;;;;;;13.97;9.53;;;1.50;94.60;;;;;;4999796;28;20698;-89
2021/01/08 07:56:17;;;;;;;13.40;9.73;;;1.60;94.60;;;;;;5006193;28;20197;-89
2021/01/08 07:58:44;;;;;;;11.40;9.77;;;1.60;95.20;;;;;;5019881;28;20208;-90
2021/01/08 08:01:13;;;;;;;15.63;10.47;;;1.50;95.60;;;;;;5021482;28;20198;-90
2021/01/08 08:03:40;;;;;;;13.90;10.67;;;1.50;95.50;;;;;;5020243;28;20201;-90
2021/01/08 08:06:07;;;;;;;14.77;9.70;;;1.60;96.00;;;;;;5022414;28;20236;-90
2021/01/08 08:08:39;;;;;;;13.53;10.87;;;1.50;95.60;;;;;;5020628;28;20205;-90
2021/01/08 08:11:16;;;;;;;14.03;10.90;;;1.50;95.70;;;;;;5020809;28;20174;-90
2021/01/08 08:13:43;;;;;;;13.07;10.07;;;1.60;95.60;;;;;;5021536;28;20173;-91
2021/01/08 08:16:10;;;;;;;13.60;9.27;;;1.50;95.60;;;;;;5021334;28;20177;-90
2021/01/08 08:18:52;;;;;;;13.33;10.53;;;1.50;95.00;;;;;;5020384;28;20212;-91
2021/01/08 08:21:18;;;;;;;11.47;9.33;;;1.70;94.70;;;;;;5021464;28;20166;-91
2021/01/08 08:23:57;;;;;;;13.90;9.90;;;1.70;94.40;;;;;;5020914;28;20182;-90
2021/01/08 08:26:24;;;;;;;11.93;8.90;;;1.70;93.30;;;;;;5003488;28;20501;-89
2021/01/08 08:29:01;;;;;;;9.40;7.73;;;1.80;91.80;;;;;;5003272;28;20225;-90
2021/01/08 08:31:29;;;;;;;11.13;8.27;;;1.80;91.90;;;;;;4996857;28;20189;-90
2021/01/08 08:33:55;;;;;;;11.23;8.67;;;1.80;91.30;;;;;;5011587;28;20194;-90
2021/01/08 08:36:22;;;;;;;11.43;8.47;;;1.70;91.50;;;;;;5007877;28;20182;-89
2021/01/08 08:38:55;;;;;;;10.80;9.07;;;1.70;91.70;;;;;;5003683;28;20217;-89
2021/01/08 08:41:21;;;;;;;10.87;8.20;;;1.70;91.30;;;;;;5009577;28;20185;-88
2021/01/08 08:43:47;;;;;;;14.60;9.27;;;1.80;91.10;;;;;;5009931;28;20278;-89
2021/01/08 08:46:13;;;;;;;10.90;9.07;;;1.80;90.80;;;;;;5014772;28;20627;-89
2021/01/08 08:48:39;;;;;;;13.17;8.77;;;1.70;91.40;;;;;;5008834;28;20220;-89
2021/01/08 08:51:05;;;;;;;12.53;9.43;;;1.60;92.10;;;;;;5015538;28;20190;-88
2021/01/08 08:53:31;;;;;;;12.53;8.80;;;1.80;91.40;;;;;;5010965;28;20178;-88
2021/01/08 08:55:57;;;;;;;9.37;8.10;;;1.80;92.60;;;;;;4993587;28;20186;-88
2021/01/08 08:58:23;;;;;;;12.07;9.50;;;1.80;92.10;;;;;;5007665;28;20689;-87
2021/01/08 09:00:51;;;;;;;12.37;8.97;;;1.80;90.70;;;;;;5000355;28;20657;-89
2021/01/08 09:03:20;;;;;;;13.20;9.37;;;1.90;89.90;;;;;;5009613;28;20212;-89
2021/01/08 09:05:48;;;;;;;11.97;9.03;;;1.90;88.90;;;;;;5011224;28;20189;-88
2021/01/08 09:08:37;;;;;;;13.60;9.40;;;1.90;89.50;;;;;;5014946;28;20210;-90
2021/01/08 09:11:17;;;;;;;11.53;9.33;;;1.90;89.00;;;;;;5017849;28;20233;-90
2021/01/08 09:14:09;;;;;;;11.60;8.77;;;1.70;89.30;;;;;;5020678;28;20223;-89
2021/01/08 09:16:55;;;;;;;12.67;8.93;;;1.70;89.70;;;;;;5018104;28;20260;-89
2021/01/08 09:19:38;;;;;;;10.73;7.83;;;1.90;88.20;;;;;;5019200;28;20214;-90
2021/01/08 09:22:05;;;;;;;8.80;7.67;;;1.80;88.30;;;;;;5012543;28;20547;-89
2021/01/08 09:24:32;;;;;;;11.90;8.80;;;1.80;88.20;;;;;;5014259;28;20243;-89
2021/01/08 09:27:00;;;;;;;13.17;9.27;;;1.80;88.40;;;;;;5020433;28;20212;-89
2021/01/08 09:29:29;;;;;;;10.60;8.37;;;1.80;87.80;;;;;;5019478;28;20260;-90
2021/01/08 09:31:56;;;;;;;13.33;9.43;;;1.80;88.10;;;;;;5011723;28;20600;-88
2021/01/08 09:34:23;;;;;;;11.87;9.23;;;1.80;87.00;;;;;;5018080;28;20181;-89
2021/01/08 09:36:50;;;;;;;12.07;9.27;;;1.90;87.50;;;;;;5013998;28;20269;-89
2021/01/08 09:39:16;;;;;;;11.13;8.93;;;1.90;87.40;;;;;;5009709;28;20226;-89
2021/01/08 09:41:43;;;;;;;11.27;8.93;;;1.80;87.20;;;;;;5013854;28;20196;-89
2021/01/08 09:44:15;;;;;;;11.60;9.50;;;1.80;88.10;;;;;;5018278;28;20212;-89
2021/01/08 09:46:54;;;;;;;14.50;9.97;;;1.80;87.70;;;;;;5016699;28;20204;-90
2021/01/08 09:49:20;;;;;;;11.67;9.07;;;1.90;87.90;;;;;;5019395;28;20209;-88
2021/01/08 09:51:46;;;;;;;12.67;9.20;;;1.80;87.20;;;;;;5011589;28;20248;-89
2021/01/08 09:54:11;;;;;;;12.50;8.23;;;1.80;86.10;;;;;;5009209;28;20185;-89
2021/01/08 09:56:37;;;;;;;9.57;7.73;;;1.90;86.30;;;;;;5002285;28;20671;-90
2021/01/08 09:59:15;;;;;;;12.00;8.00;;;1.90;85.60;;;;;;5002942;28;20213;-89
2021/01/08 10:01:57;;;;;;;10.50;7.97;;;1.90;85.90;;;;;;4996274;28;20190;-88
2021/01/08 10:04:30;;;;;;;11.80;8.30;;;1.90;85.80;;;;;;5010820;28;20190;-88
2021/01/08 10:06:57;;;;;;;12.47;8.07;;;1.80;87.20;;;;;;5000371;28;20247;-88
2021/01/08 10:09:23;;;;;;;10.93;8.40;;;1.80;85.20;;;;;;5019636;28;20299;-88
2021/01/08 10:12:01;;;;;;;11.50;8.07;;;1.80;85.40;;;;;;5003162;28;20640;-89
2021/01/08 10:14:31;;;;;;;10.60;7.80;;;1.80;85.70;;;;;;5004927;28;20195;-88
2021/01/08 10:17:15;;;;;;;12.23;8.67;;;1.80;86.60;;;;;;5022213;28;20185;-89
2021/01/08 10:19:43;;;;;;;9.13;7.40;;;1.80;85.30;;;;;;4988440;28;20193;-89
2021/01/08 10:22:09;;;;;;;10.17;6.87;;;1.90;85.60;;;;;;5002679;28;20190;-90
2021/01/08 10:24:36;;;;;;;10.93;8.73;;;1.80;84.60;;;;;;5019686;28;20240;-89
2021/01/08 10:27:02;;;;;;;11.17;7.87;;;1.90;85.40;;;;;;5023588;28;20625;-88
2021/01/08 10:29:36;;;;;;;14.67;9.10;;;1.90;86.10;;;;;;4999090;28;20259;-88
2021/01/08 10:32:12;;;;;;;12.50;8.57;;;1.90;85.80;;;;;;5024818;28;20185;-88
2021/01/08 10:34:43;;;;;;;11.43;8.80;;;1.90;84.90;;;;;;5020357;28;20644;-89
2021/01/08 10:37:17;;;;;;;12.27;8.70;;;1.90;85.60;;;;;;5015965;28;20174;-88
2021/01/08 10:39:43;;;;;;;12.40;8.47;;;2.00;84.70;;;;;;4999681;28;20193;-89
2021/01/08 10:42:10;;;;;;;13.83;10.10;;;1.90;84.90;;;;;;5020176;28;20653;-88
2021/01/08 10:44:36;;;;;;;12.30;8.83;;;1.90;85.60;;;;;;5020022;28;20181;-88
2021/01/08 10:47:02;;;;;;;12.73;9.30;;;1.80;86.50;;;;;;5019947;28;20237;-88
2021/01/08 10:49:27;;;;;;;13.63;9.37;;;1.80;87.20;;;;;;5017479;28;20217;-89
2021/01/08 10:51:53;;;;;;;11.63;9.03;;;1.80;86.80;;;;;;5009652;28;20210;-89
2021/01/08 10:54:18;;;;;;;11.93;9.03;;;1.80;87.20;;;;;;5013501;28;20186;-89
2021/01/08 10:56:45;;;;;;;13.00;8.53;;;1.80;86.80;;;;;;4997210;28;20202;-88
2021/01/08 10:59:12;;;;;;;13.10;9.43;;;1.70;86.80;;;;;;5019910;28;20221;-89
2021/01/08 11:01:49;;;;;;;10.87;9.00;;;1.70;86.50;;;;;;5018363;28;20229;-89
2021/01/08 11:04:15;;;;;;;11.63;8.30;;;1.70;85.60;;;;;;5012756;28;20194;-89
2021/01/08 11:06:40;;;;;;;11.23;8.10;;;1.70;84.30;;;;;;4995930;28;20201;-89
2021/01/08 11:09:07;;;;;;;12.97;9.50;;;1.70;87.10;;;;;;5005172;28;20305;-88
2021/01/08 11:11:33;;;;;;;11.57;8.73;;;1.60;87.70;;;;;;5003619;28;20194;-88
2021/01/08 11:14:00;;;;;;;12.70;9.03;;;1.60;87.60;;;;;;5018750;28;20201;-88
2021/01/08 11:16:26;;;;;;;11.90;9.07;;;1.70;86.10;;;;;;5014494;28;20217;-89
2021/01/08 11:18:52;;;;;;;13.00;9.70;;;1.70;85.60;;;;;;5007612;28;20201;-88
2021/01/08 11:21:21;;;;;;;12.23;8.50;;;1.70;87.40;;;;;;5021601;28;20186;-88
2021/01/08 11:23:48;;;;;;;14.67;10.20;;;1.60;88.10;;;;;;5020004;28;20182;-88
2021/01/08 11:26:23;;;;;;;12.10;9.07;;;1.60;88.50;;;;;;5017158;28;20339;-89
2021/01/08 11:28:49;;;;;;;12.80;8.73;;;1.50;88.90;;;;;;5008063;28;20228;-91
2021/01/08 11:31:15;;;;;;;10.90;8.10;;;1.50;89.80;;;;;;5015637;28;20185;-90
2021/01/08 11:33:40;;;;;;;13.67;8.57;;;1.50;89.50;;;;;;5004006;28;20741;-90
2021/01/08 11:36:06;;;;;;;13.13;9.73;;;1.50;88.30;;;;;;5008362;28;20186;-90
2021/01/08 11:38:32;;;;;;;13.47;9.00;;;1.40;90.00;;;;;;5004587;28;20232;-90
2021/01/08 11:40:58;;;;;;;11.40;8.87;;;1.30;91.10;;;;;;5008513;28;20209;-90
2021/01/08 11:43:23;;;;;;;14.27;9.30;;;1.30;90.70;;;;;;5009674;28;20205;-90
2021/01/08 11:45:49;;;;;;;14.50;9.47;;;1.40;90.00;;;;;;5007252;28;20284;-90
2021/01/08 11:48:14;;;;;;;14.20;9.20;;;1.50;90.60;;;;;;5005236;28;20232;-90
2021/01/08 11:50:40;;;;;;;18.30;9.33;;;1.40;90.90;;;;;;5007739;28;20244;-90
2021/01/08 11:53:06;;;;;;;12.50;9.37;;;1.60;90.60;;;;;;5005854;28;20195;-90
2021/01/08 11:55:32;;;;;;;12.33;9.30;;;1.50;90.80;;;;;;5007154;28;20190;-90
2021/01/08 11:57:57;;;;;;;11.37;9.27;;;1.70;89.30;;;;;;5008188;28;20216;-90
2021/01/08 12:00:23;;;;;;;13.10;9.13;;;1.70;89.00;;;;;;5013832;28;20309;-91
2021/01/08 12:02:48;;;;;;;13.03;9.47;;;1.70;89.10;;;;;;5010469;28;20297;-90
2021/01/08 12:05:14;;;;;;;11.33;8.13;;;1.70;89.00;;;;;;5012150;28;20205;-91
2021/01/08 12:07:40;;;;;;;10.73;8.27;;;1.70;87.50;;;;;;4989602;28;20585;-90
2021/01/08 12:10:06;;;;;;;12.10;9.17;;;1.70;87.30;;;;;;5006668;28;20222;-90
2021/01/08 12:12:33;;;;;;;11.87;8.27;;;1.70;87.20;;;;;;5009854;28;20189;-91
2021/01/08 12:14:59;;;;;;;12.90;9.00;;;1.80;86.30;;;;;;5010249;28;20201;-91
2021/01/08 12:17:25;;;;;;;12.73;9.50;;;1.80;85.60;;;;;;5013750;28;20214;-90
2021/01/08 12:19:50;;;;;;;11.27;8.37;;;1.80;86.50;;;;;;5009725;28;20197;-92
2021/01/08 12:22:16;;;;;;;18.73;12.53;;;1.70;87.20;;;;;;5010757;28;20530;-91
2021/01/08 12:24:42;;;;;;;17.70;12.03;;;1.70;88.70;;;;;;5010724;28;20204;-91
2021/01/08 12:27:07;;;;;;;13.57;9.93;;;1.70;89.20;;;;;;5010652;28;20191;-91
2021/01/08 12:29:36;;;;;;;15.03;11.07;;;1.60;89.80;;;;;;5007254;28;20355;-91
2021/01/08 12:32:03;;;;;;;15.50;9.57;;;1.60;90.10;;;;;;5013297;28;20190;-91
2021/01/08 12:34:28;;;;;;;12.87;9.73;;;1.70;89.00;;;;;;5008031;28;20673;-91
2021/01/08 12:36:54;;;;;;;11.73;8.60;;;1.70;89.50;;;;;;5012264;28;20180;-90
2021/01/08 12:39:20;;;;;;;13.57;9.43;;;1.70;90.10;;;;;;5012131;28;20225;-90
2021/01/08 12:41:46;;;;;;;12.10;8.93;;;1.70;90.50;;;;;;5011675;28;20236;-90
2021/01/08 12:44:12;;;;;;;13.83;10.00;;;1.70;88.50;;;;;;5013965;28;20186;-91
2021/01/08 12:46:38;;;;;;;11.73;8.83;;;1.70;88.50;;;;;;5016900;28;20198;-91
2021/01/08 12:49:05;;;;;;;13.30;9.33;;;1.60;88.80;;;;;;5017100;28;20213;-91